sensor_id;sensor_type;location;lat;lon;timestamp;temperature;humidity
27823;DHT22;29019;47.630;8.262;2024-03-23T00:57:28;19.20;42.80
27823;DHT22;29019;47.630;8.262;2024-03-23T01:01:29;19.20;42.80
27823;DHT22;29019;47.630;8.262;2024-03-23T01:05:29;19.20;42.80
27823;DHT22;29019;47.630;8.262;2024-03-23T01:09:30;19.20;42.80
27823;DHT22;29019;47.630;8.262;2024-03-23T01:13:30;19.20;42.80
27823;DHT22;29019;47.630;8.262;2024-03-23T01:17:31;19.20;42.80
27823;DHT22;29019;47.630;8.262;2024-03-23T01:21:32;19.20;42.80
27823;DHT22;29019;47.630;8.262;2024-03-23T01:25:32;19.20;42.80
27823;DHT22;29019;47.630;8.262;2024-03-23T01:29:33;19.20;42.80
27823;DHT22;29019;47.630;8.262;2024-03-23T01:33:33;19.20;42.80
27823;DHT22;29019;47.630;8.262;2024-03-23T01:37:34;19.20;42.90
27823;DHT22;29019;47.630;8.262;2024-03-23T01:41:35;19.20;42.90
27823;DHT22;29019;47.630;8.262;2024-03-23T01:45:36;19.20;42.90
27823;DHT22;29019;47.630;8.262;2024-03-23T01:49:37;19.20;42.90
27823;DHT22;29019;47.630;8.262;2024-03-23T01:53:37;19.20;42.90
27823;DHT22;29019;47.630;8.262;2024-03-23T01:57:38;19.20;42.90
27823;DHT22;29019;47.630;8.262;2024-03-23T02:01:39;19.20;42.90
27823;DHT22;29019;47.630;8.262;2024-03-23T02:05:39;19.20;42.90
27823;DHT22;29019;47.630;8.262;2024-03-23T02:09:41;19.20;42.90
27823;DHT22;29019;47.630;8.262;2024-03-23T02:13:41;19.20;42.90
27823;DHT22;29019;47.630;8.262;2024-03-23T02:17:42;19.20;42.90
27823;DHT22;29019;47.630;8.262;2024-03-23T02:21:42;19.20;43.00
27823;DHT22;29019;47.630;8.262;2024-03-23T02:25:43;19.20;43.00
27823;DHT22;29019;47.630;8.262;2024-03-23T02:29:46;19.10;43.00
27823;DHT22;29019;47.630;8.262;2024-03-23T02:33:46;19.10;42.90
27823;DHT22;29019;47.630;8.262;2024-03-23T02:37:47;19.20;43.00
27823;DHT22;29019;47.630;8.262;2024-03-23T02:41:50;19.10;43.00
27823;DHT22;29019;47.630;8.262;2024-03-23T02:45:51;19.10;42.90
27823;DHT22;29019;47.630;8.262;2024-03-23T02:49:51;19.10;43.00
27823;DHT22;29019;47.630;8.262;2024-03-23T02:53:52;19.10;43.00
27823;DHT22;29019;47.630;8.262;2024-03-23T02:57:52;19.10;42.90
27823;DHT22;29019;47.630;8.262;2024-03-23T03:01:53;19.20;43.00
27823;DHT22;29019;47.630;8.262;2024-03-23T03:05:56;19.10;43.00
27823;DHT22;29019;47.630;8.262;2024-03-23T03:09:57;19.10;43.00
27823;DHT22;29019;47.630;8.262;2024-03-23T03:13:57;19.20;42.90
27823;DHT22;29019;47.630;8.262;2024-03-23T03:18:00;19.10;43.00
27823;DHT22;29019;47.630;8.262;2024-03-23T03:22:01;19.10;43.10
27823;DHT22;29019;47.630;8.262;2024-03-23T03:26:01;19.10;43.00
27823;DHT22;29019;47.630;8.262;2024-03-23T03:30:02;19.10;43.00
27823;DHT22;29019;47.630;8.262;2024-03-23T03:34:06;19.20;43.10
27823;DHT22;29019;47.630;8.262;2024-03-23T03:38:06;19.20;43.10
27823;DHT22;29019;47.630;8.262;2024-03-23T03:42:07;19.10;43.00
27823;DHT22;29019;47.630;8.262;2024-03-23T03:46:08;19.10;43.00
27823;DHT22;29019;47.630;8.262;2024-03-23T03:50:08;19.10;43.00
27823;DHT22;29019;47.630;8.262;2024-03-23T03:54:09;19.10;43.00
27823;DHT22;29019;47.630;8.262;2024-03-23T03:58:10;19.20;43.10
27823;DHT22;29019;47.630;8.262;2024-03-23T04:02:10;19.20;43.00
27823;DHT22;29019;47.630;8.262;2024-03-23T04:06:11;19.20;43.10
27823;DHT22;29019;47.630;8.262;2024-03-23T04:10:11;19.20;43.10
27823;DHT22;29019;47.630;8.262;2024-03-23T04:14:12;19.10;43.00
27823;DHT22;29019;47.630;8.262;2024-03-23T04:18:12;19.20;43.10
27823;DHT22;29019;47.630;8.262;2024-03-23T04:22:13;19.20;43.10
27823;DHT22;29019;47.630;8.262;2024-03-23T04:26:14;19.20;43.10
27823;DHT22;29019;47.630;8.262;2024-03-23T04:30:15;19.20;43.10
27823;DHT22;29019;47.630;8.262;2024-03-23T04:34:16;19.20;43.20
27823;DHT22;29019;47.630;8.262;2024-03-23T04:38:17;19.20;43.20
27823;DHT22;29019;47.630;8.262;2024-03-23T04:42:17;19.20;43.30
27823;DHT22;29019;47.630;8.262;2024-03-23T04:46:18;19.20;43.30
27823;DHT22;29019;47.630;8.262;2024-03-23T04:50:19;19.10;43.30
27823;DHT22;29019;47.630;8.262;2024-03-23T04:54:19;19.10;43.30
27823;DHT22;29019;47.630;8.262;2024-03-23T04:58:20;19.10;43.30
27823;DHT22;29019;47.630;8.262;2024-03-23T05:02:20;19.20;43.30
27823;DHT22;29019;47.630;8.262;2024-03-23T05:06:21;19.10;43.30
27823;DHT22;29019;47.630;8.262;2024-03-23T05:10:21;19.10;43.30
27823;DHT22;29019;47.630;8.262;2024-03-23T05:14:22;19.20;43.30
27823;DHT22;29019;47.630;8.262;2024-03-23T05:18:22;19.20;43.30
27823;DHT22;29019;47.630;8.262;2024-03-23T05:22:26;19.20;43.30
27823;DHT22;29019;47.630;8.262;2024-03-23T05:26:27;19.20;43.30
27823;DHT22;29019;47.630;8.262;2024-03-23T05:30:28;19.20;43.30
27823;DHT22;29019;47.630;8.262;2024-03-23T05:34:29;19.10;43.30
27823;DHT22;29019;47.630;8.262;2024-03-23T05:38:29;19.20;43.30
27823;DHT22;29019;47.630;8.262;2024-03-23T05:42:30;19.20;43.30
27823;DHT22;29019;47.630;8.262;2024-03-23T05:46:31;19.10;43.30
27823;DHT22;29019;47.630;8.262;2024-03-23T05:50:31;19.10;43.30
27823;DHT22;29019;47.630;8.262;2024-03-23T05:54:32;19.20;43.40
27823;DHT22;29019;47.630;8.262;2024-03-23T05:58:33;19.10;43.40
27823;DHT22;29019;47.630;8.262;2024-03-23T06:02:33;19.10;43.40
27823;DHT22;29019;47.630;8.262;2024-03-23T06:06:34;19.10;43.40
27823;DHT22;29019;47.630;8.262;2024-03-23T06:10:34;19.10;43.40
27823;DHT22;29019;47.630;8.262;2024-03-23T06:14:35;19.10;43.40
27823;DHT22;29019;47.630;8.262;2024-03-23T06:18:35;19.10;43.40
27823;DHT22;29019;47.630;8.262;2024-03-23T06:22:36;19.20;43.40
27823;DHT22;29019;47.630;8.262;2024-03-23T06:26:37;19.20;43.40
27823;DHT22;29019;47.630;8.262;2024-03-23T06:30:38;19.20;43.40
27823;DHT22;29019;47.630;8.262;2024-03-23T06:34:40;19.20;43.40
27823;DHT22;29019;47.630;8.262;2024-03-23T06:38:41;19.20;43.40
27823;DHT22;29019;47.630;8.262;2024-03-23T06:42:42;19.30;43.40
27823;DHT22;29019;47.630;8.262;2024-03-23T06:46:42;19.30;43.30
27823;DHT22;29019;47.630;8.262;2024-03-23T06:50:43;19.30;43.20
27823;DHT22;29019;47.630;8.262;2024-03-23T06:54:43;19.30;43.20
27823;DHT22;29019;47.630;8.262;2024-03-23T06:58:45;19.40;43.10
27823;DHT22;29019;47.630;8.262;2024-03-23T07:02:45;19.30;43.20
27823;DHT22;29019;47.630;8.262;2024-03-23T07:06:46;19.30;43.20
27823;DHT22;29019;47.630;8.262;2024-03-23T07:10:46;19.40;43.20
27823;DHT22;29019;47.630;8.262;2024-03-23T07:14:47;19.40;43.30
27823;DHT22;29019;47.630;8.262;2024-03-23T07:18:49;19.30;43.20
27823;DHT22;29019;47.630;8.262;2024-03-23T07:22:50;19.40;43.20
27823;DHT22;29019;47.630;8.262;2024-03-23T07:26:50;19.40;43.20
27823;DHT22;29019;47.630;8.262;2024-03-23T07:31:05;19.30;43.20
27823;DHT22;29019;47.630;8.262;2024-03-23T07:35:05;19.30;43.80
27823;DHT22;29019;47.630;8.262;2024-03-23T07:39:06;19.30;43.30
27823;DHT22;29019;47.630;8.262;2024-03-23T07:43:08;19.30;43.30
27823;DHT22;29019;47.630;8.262;2024-03-23T07:47:08;19.30;43.30
27823;DHT22;29019;47.630;8.262;2024-03-23T07:51:10;19.30;43.30
27823;DHT22;29019;47.630;8.262;2024-03-23T07:55:10;19.30;43.90
27823;DHT22;29019;47.630;8.262;2024-03-23T07:59:12;19.30;43.30
27823;DHT22;29019;47.630;8.262;2024-03-23T08:03:12;19.30;43.30
27823;DHT22;29019;47.630;8.262;2024-03-23T08:07:13;19.30;43.30
27823;DHT22;29019;47.630;8.262;2024-03-23T08:11:13;19.30;43.20
27823;DHT22;29019;47.630;8.262;2024-03-23T08:15:14;19.30;43.20
27823;DHT22;29019;47.630;8.262;2024-03-23T08:19:14;19.30;43.20
27823;DHT22;29019;47.630;8.262;2024-03-23T08:23:15;19.30;43.20
27823;DHT22;29019;47.630;8.262;2024-03-23T08:27:16;19.30;43.20
27823;DHT22;29019;47.630;8.262;2024-03-23T08:31:16;19.30;43.20
27823;DHT22;29019;47.630;8.262;2024-03-23T08:35:17;19.30;43.20
27823;DHT22;29019;47.630;8.262;2024-03-23T08:39:17;19.40;43.10
27823;DHT22;29019;47.630;8.262;2024-03-23T08:43:18;19.40;43.10
27823;DHT22;29019;47.630;8.262;2024-03-23T08:47:19;19.30;43.20
27823;DHT22;29019;47.630;8.262;2024-03-23T08:51:20;19.30;43.20
27823;DHT22;29019;47.630;8.262;2024-03-23T08:55:20;19.30;43.10
27823;DHT22;29019;47.630;8.262;2024-03-23T08:59:21;19.30;43.10
27823;DHT22;29019;47.630;8.262;2024-03-23T09:03:24;19.30;43.20
27823;DHT22;29019;47.630;8.262;2024-03-23T09:07:24;19.30;43.20
27823;DHT22;29019;47.630;8.262;2024-03-23T09:11:25;19.40;43.10
27823;DHT22;29019;47.630;8.262;2024-03-23T09:15:25;19.30;43.10
27823;DHT22;29019;47.630;8.262;2024-03-23T09:19:29;19.30;43.10
27823;DHT22;29019;47.630;8.262;2024-03-23T09:23:29;19.40;43.10
27823;DHT22;29019;47.630;8.262;2024-03-23T09:27:30;19.40;43.20
27823;DHT22;29019;47.630;8.262;2024-03-23T09:31:31;19.40;43.10
27823;DHT22;29019;47.630;8.262;2024-03-23T09:35:40;19.40;43.10
27823;DHT22;29019;47.630;8.262;2024-03-23T09:39:40;19.30;43.10
27823;DHT22;29019;47.630;8.262;2024-03-23T09:43:42;19.30;43.10
27823;DHT22;29019;47.630;8.262;2024-03-23T09:47:42;19.30;43.10
27823;DHT22;29019;47.630;8.262;2024-03-23T09:51:43;19.30;43.20
27823;DHT22;29019;47.630;8.262;2024-03-23T09:55:44;19.20;43.30
27823;DHT22;29019;47.630;8.262;2024-03-23T09:59:45;19.20;43.30
27823;DHT22;29019;47.630;8.262;2024-03-23T10:03:45;19.20;43.30
27823;DHT22;29019;47.630;8.262;2024-03-23T10:07:46;19.20;43.30
27823;DHT22;29019;47.630;8.262;2024-03-23T10:11:47;19.20;43.30
27823;DHT22;29019;47.630;8.262;2024-03-23T10:15:54;19.20;43.40
27823;DHT22;29019;47.630;8.262;2024-03-23T10:19:55;19.20;43.30
27823;DHT22;29019;47.630;8.262;2024-03-23T10:23:56;19.20;43.40
27823;DHT22;29019;47.630;8.262;2024-03-23T10:28:08;19.20;43.30
27823;DHT22;29019;47.630;8.262;2024-03-23T10:32:09;19.20;43.30
27823;DHT22;29019;47.630;8.262;2024-03-23T10:36:11;19.30;43.30
27823;DHT22;29019;47.630;8.262;2024-03-23T10:40:12;19.30;43.20
27823;DHT22;29019;47.630;8.262;2024-03-23T10:44:12;19.40;43.10
27823;DHT22;29019;47.630;8.262;2024-03-23T10:48:13;19.30;43.10
27823;DHT22;29019;47.630;8.262;2024-03-23T10:52:14;19.40;43.00
27823;DHT22;29019;47.630;8.262;2024-03-23T10:56:14;19.40;43.00
27823;DHT22;29019;47.630;8.262;2024-03-23T11:00:16;19.30;43.00
27823;DHT22;29019;47.630;8.262;2024-03-23T11:04:29;19.30;43.00
27823;DHT22;29019;47.630;8.262;2024-03-23T11:08:30;19.30;43.10
27823;DHT22;29019;47.630;8.262;2024-03-23T11:12:30;19.30;43.00
27823;DHT22;29019;47.630;8.262;2024-03-23T11:16:33;19.30;43.00
27823;DHT22;29019;47.630;8.262;2024-03-23T11:20:36;19.30;43.00
27823;DHT22;29019;47.630;8.262;2024-03-23T11:24:37;19.30;43.10
27823;DHT22;29019;47.630;8.262;2024-03-23T11:28:38;19.30;43.20
27823;DHT22;29019;47.630;8.262;2024-03-23T11:32:39;19.30;43.30
27823;DHT22;29019;47.630;8.262;2024-03-23T11:36:39;19.20;43.20
27823;DHT22;29019;47.630;8.262;2024-03-23T11:40:43;19.30;43.20
27823;DHT22;29019;47.630;8.262;2024-03-23T11:44:44;19.30;43.20
27823;DHT22;29019;47.630;8.262;2024-03-23T11:48:49;19.30;43.10
27823;DHT22;29019;47.630;8.262;2024-03-23T11:52:50;19.30;43.10
27823;DHT22;29019;47.630;8.262;2024-03-23T11:57:00;19.30;43.20
27823;DHT22;29019;47.630;8.262;2024-03-23T12:01:01;19.30;43.20
27823;DHT22;29019;47.630;8.262;2024-03-23T12:05:13;19.30;43.20
27823;DHT22;29019;47.630;8.262;2024-03-23T12:09:14;19.30;43.10
27823;DHT22;29019;47.630;8.262;2024-03-23T12:13:18;19.30;43.20
27823;DHT22;29019;47.630;8.262;2024-03-23T12:17:18;19.30;43.10
27823;DHT22;29019;47.630;8.262;2024-03-23T12:21:22;19.30;43.00
27823;DHT22;29019;47.630;8.262;2024-03-23T12:25:23;19.30;43.00
27823;DHT22;29019;47.630;8.262;2024-03-23T12:29:23;19.30;43.00
27823;DHT22;29019;47.630;8.262;2024-03-23T12:33:24;19.30;43.00
27823;DHT22;29019;47.630;8.262;2024-03-23T12:37:24;19.30;43.00
27823;DHT22;29019;47.630;8.262;2024-03-23T12:41:25;19.30;43.10
27823;DHT22;29019;47.630;8.262;2024-03-23T12:45:25;19.30;43.10
27823;DHT22;29019;47.630;8.262;2024-03-23T12:49:27;19.30;43.10
27823;DHT22;29019;47.630;8.262;2024-03-23T12:53:27;19.30;43.20
27823;DHT22;29019;47.630;8.262;2024-03-23T12:57:28;19.30;43.20
27823;DHT22;29019;47.630;8.262;2024-03-23T13:01:28;19.20;43.20
27823;DHT22;29019;47.630;8.262;2024-03-23T13:05:29;19.20;43.20
27823;DHT22;29019;47.630;8.262;2024-03-23T13:09:29;19.20;43.20
27823;DHT22;29019;47.630;8.262;2024-03-23T13:13:30;19.20;43.20
27823;DHT22;29019;47.630;8.262;2024-03-23T13:17:32;19.20;43.20
27823;DHT22;29019;47.630;8.262;2024-03-23T13:21:32;19.30;43.20
27823;DHT22;29019;47.630;8.262;2024-03-23T13:25:33;19.20;43.10
27823;DHT22;29019;47.630;8.262;2024-03-23T13:29:33;19.30;43.20
27823;DHT22;29019;47.630;8.262;2024-03-23T13:33:35;19.30;43.10
27823;DHT22;29019;47.630;8.262;2024-03-23T13:37:36;19.30;43.10
27823;DHT22;29019;47.630;8.262;2024-03-23T13:41:43;19.30;43.10
27823;DHT22;29019;47.630;8.262;2024-03-23T13:45:44;19.20;43.10
27823;DHT22;29019;47.630;8.262;2024-03-23T13:49:44;19.20;43.10
27823;DHT22;29019;47.630;8.262;2024-03-23T13:53:45;19.20;43.10
27823;DHT22;29019;47.630;8.262;2024-03-23T13:57:46;19.20;43.10
27823;DHT22;29019;47.630;8.262;2024-03-23T14:01:46;19.20;43.10
27823;DHT22;29019;47.630;8.262;2024-03-23T14:05:47;19.20;43.10
27823;DHT22;29019;47.630;8.262;2024-03-23T14:09:47;19.20;43.10
27823;DHT22;29019;47.630;8.262;2024-03-23T14:13:48;19.20;43.20
27823;DHT22;29019;47.630;8.262;2024-03-23T14:17:48;19.20;43.10
27823;DHT22;29019;47.630;8.262;2024-03-23T14:21:49;19.20;43.10
27823;DHT22;29019;47.630;8.262;2024-03-23T14:25:52;19.20;43.10
27823;DHT22;29019;47.630;8.262;2024-03-23T14:29:52;19.20;43.10
27823;DHT22;29019;47.630;8.262;2024-03-23T14:33:53;19.20;43.10
27823;DHT22;29019;47.630;8.262;2024-03-23T14:37:53;19.20;43.00
27823;DHT22;29019;47.630;8.262;2024-03-23T14:41:54;19.20;43.00
27823;DHT22;29019;47.630;8.262;2024-03-23T14:46:11;19.20;43.00
27823;DHT22;29019;47.630;8.262;2024-03-23T14:50:13;19.20;43.00
27823;DHT22;29019;47.630;8.262;2024-03-23T14:54:15;19.20;43.00
27823;DHT22;29019;47.630;8.262;2024-03-23T14:58:16;19.20;43.00
27823;DHT22;29019;47.630;8.262;2024-03-23T15:02:16;19.20;43.50
27823;DHT22;29019;47.630;8.262;2024-03-23T15:06:17;19.20;43.00
27823;DHT22;29019;47.630;8.262;2024-03-23T15:10:17;19.20;43.00
27823;DHT22;29019;47.630;8.262;2024-03-23T15:14:18;19.20;43.00
27823;DHT22;29019;47.630;8.262;2024-03-23T15:18:20;19.20;43.00
27823;DHT22;29019;47.630;8.262;2024-03-23T15:22:26;19.20;43.00
27823;DHT22;29019;47.630;8.262;2024-03-23T15:26:26;19.20;43.00
27823;DHT22;29019;47.630;8.262;2024-03-23T15:30:27;19.20;43.00
27823;DHT22;29019;47.630;8.262;2024-03-23T15:34:28;19.20;43.00
27823;DHT22;29019;47.630;8.262;2024-03-23T15:38:30;19.20;43.00
27823;DHT22;29019;47.630;8.262;2024-03-23T15:42:31;19.20;43.40
27823;DHT22;29019;47.630;8.262;2024-03-23T15:46:31;19.30;43.40
27823;DHT22;29019;47.630;8.262;2024-03-23T15:50:32;19.30;43.70
27823;DHT22;29019;47.630;8.262;2024-03-23T15:54:33;19.30;43.50
27823;DHT22;29019;47.630;8.262;2024-03-23T15:58:33;19.40;43.60
27823;DHT22;29019;47.630;8.262;2024-03-23T16:02:37;19.40;43.40
27823;DHT22;29019;47.630;8.262;2024-03-23T16:06:38;19.50;43.50
27823;DHT22;29019;47.630;8.262;2024-03-23T16:10:38;19.40;43.20
27823;DHT22;29019;47.630;8.262;2024-03-23T16:14:39;19.50;43.50
27823;DHT22;29019;47.630;8.262;2024-03-23T16:18:39;19.50;43.30
27823;DHT22;29019;47.630;8.262;2024-03-23T16:22:40;19.50;43.30
27823;DHT22;29019;47.630;8.262;2024-03-23T16:26:41;19.60;43.40
27823;DHT22;29019;47.630;8.262;2024-03-23T16:30:41;19.60;43.10
27823;DHT22;29019;47.630;8.262;2024-03-23T16:34:42;19.60;43.00
27823;DHT22;29019;47.630;8.262;2024-03-23T16:38:42;19.60;43.10
27823;DHT22;29019;47.630;8.262;2024-03-23T16:42:43;19.60;43.00
27823;DHT22;29019;47.630;8.262;2024-03-23T16:46:43;19.60;43.00
27823;DHT22;29019;47.630;8.262;2024-03-23T16:50:44;19.60;43.00
27823;DHT22;29019;47.630;8.262;2024-03-23T16:54:46;19.60;43.00
27823;DHT22;29019;47.630;8.262;2024-03-23T16:58:48;19.70;43.00
27823;DHT22;29019;47.630;8.262;2024-03-23T17:02:49;19.70;43.10
27823;DHT22;29019;47.630;8.262;2024-03-23T17:06:50;19.70;43.10
27823;DHT22;29019;47.630;8.262;2024-03-23T17:10:50;19.80;43.10
27823;DHT22;29019;47.630;8.262;2024-03-23T17:14:51;19.80;43.20
27823;DHT22;29019;47.630;8.262;2024-03-23T17:18:51;19.80;43.30
27823;DHT22;29019;47.630;8.262;2024-03-23T17:22:55;19.80;43.20
27823;DHT22;29019;47.630;8.262;2024-03-23T17:26:56;19.90;43.30
27823;DHT22;29019;47.630;8.262;2024-03-23T17:30:56;19.80;43.30
27823;DHT22;29019;47.630;8.262;2024-03-23T17:34:57;19.80;43.30
27823;DHT22;29019;47.630;8.262;2024-03-23T17:38:58;19.80;43.30
27823;DHT22;29019;47.630;8.262;2024-03-23T17:42:58;19.80;43.20
27823;DHT22;29019;47.630;8.262;2024-03-23T17:46:59;19.80;43.30
27823;DHT22;29019;47.630;8.262;2024-03-23T17:51:03;19.80;43.60
27823;DHT22;29019;47.630;8.262;2024-03-23T17:55:03;19.90;43.70
27823;DHT22;29019;47.630;8.262;2024-03-23T17:59:04;19.90;43.70
27823;DHT22;29019;47.630;8.262;2024-03-23T18:03:05;20.00;43.80
27823;DHT22;29019;47.630;8.262;2024-03-23T18:07:06;20.00;43.80
27823;DHT22;29019;47.630;8.262;2024-03-23T18:11:07;20.10;44.70
27823;DHT22;29019;47.630;8.262;2024-03-23T18:15:08;20.10;45.90
27823;DHT22;29019;47.630;8.262;2024-03-23T18:19:09;20.10;47.20
27823;DHT22;29019;47.630;8.262;2024-03-23T18:23:10;20.20;46.30
27823;DHT22;29019;47.630;8.262;2024-03-23T18:27:10;20.10;46.40
27823;DHT22;29019;47.630;8.262;2024-03-23T18:31:13;20.10;47.00
27823;DHT22;29019;47.630;8.262;2024-03-23T18:35:13;20.20;47.40
27823;DHT22;29019;47.630;8.262;2024-03-23T18:39:14;20.20;47.50
27823;DHT22;29019;47.630;8.262;2024-03-23T18:43:15;20.20;47.50
27823;DHT22;29019;47.630;8.262;2024-03-23T18:47:15;20.30;47.30
27823;DHT22;29019;47.630;8.262;2024-03-23T18:51:16;20.30;47.30
27823;DHT22;29019;47.630;8.262;2024-03-23T18:55:17;20.30;47.50
27823;DHT22;29019;47.630;8.262;2024-03-23T18:59:17;20.20;47.60
27823;DHT22;29019;47.630;8.262;2024-03-23T19:03:18;20.30;47.00
27823;DHT22;29019;47.630;8.262;2024-03-23T19:07:18;20.20;47.20
27823;DHT22;29019;47.630;8.262;2024-03-23T19:11:19;20.30;47.70
27823;DHT22;29019;47.630;8.262;2024-03-23T19:15:19;20.30;46.30
27823;DHT22;29019;47.630;8.262;2024-03-23T19:19:20;20.30;46.10
27823;DHT22;29019;47.630;8.262;2024-03-23T19:23:21;20.30;46.60
27823;DHT22;29019;47.630;8.262;2024-03-23T19:27:21;20.30;46.50
27823;DHT22;29019;47.630;8.262;2024-03-23T19:31:22;20.30;46.30
27823;DHT22;29019;47.630;8.262;2024-03-23T19:35:22;20.20;46.20
27823;DHT22;29019;47.630;8.262;2024-03-23T19:39:23;20.10;45.70
27823;DHT22;29019;47.630;8.262;2024-03-23T19:43:24;20.10;46.60
27823;DHT22;29019;47.630;8.262;2024-03-23T19:47:28;20.10;46.70
27823;DHT22;29019;47.630;8.262;2024-03-23T19:51:29;20.20;47.20
27823;DHT22;29019;47.630;8.262;2024-03-23T19:55:29;20.30;47.60
27823;DHT22;29019;47.630;8.262;2024-03-23T19:59:31;20.30;47.50
27823;DHT22;29019;47.630;8.262;2024-03-23T20:03:31;20.40;47.80
27823;DHT22;29019;47.630;8.262;2024-03-23T20:07:32;20.40;47.10
27823;DHT22;29019;47.630;8.262;2024-03-23T20:11:32;20.40;47.20
27823;DHT22;29019;47.630;8.262;2024-03-23T20:15:33;20.40;47.30
27823;DHT22;29019;47.630;8.262;2024-03-23T20:19:34;20.40;47.00
27823;DHT22;29019;47.630;8.262;2024-03-23T20:23:34;20.30;47.00
27823;DHT22;29019;47.630;8.262;2024-03-23T20:27:35;20.30;46.60
27823;DHT22;29019;47.630;8.262;2024-03-23T20:31:35;20.20;46.30
27823;DHT22;29019;47.630;8.262;2024-03-23T20:35:36;20.20;46.30
27823;DHT22;29019;47.630;8.262;2024-03-23T20:39:37;20.20;46.20
27823;DHT22;29019;47.630;8.262;2024-03-23T20:43:37;20.10;46.40
27823;DHT22;29019;47.630;8.262;2024-03-23T20:47:45;20.10;46.30
27823;DHT22;29019;47.630;8.262;2024-03-23T20:51:45;20.10;46.50
27823;DHT22;29019;47.630;8.262;2024-03-23T20:55:50;20.10;46.80
27823;DHT22;29019;47.630;8.262;2024-03-23T20:59:50;20.20;46.90
27823;DHT22;29019;47.630;8.262;2024-03-23T21:03:51;20.20;46.60
27823;DHT22;29019;47.630;8.262;2024-03-23T21:07:52;20.20;46.30
27823;DHT22;29019;47.630;8.262;2024-03-23T21:11:53;20.20;46.60
27823;DHT22;29019;47.630;8.262;2024-03-23T21:15:53;20.20;46.50
27823;DHT22;29019;47.630;8.262;2024-03-23T21:20:00;20.20;46.50
27823;DHT22;29019;47.630;8.262;2024-03-23T21:24:00;20.20;46.40
27823;DHT22;29019;47.630;8.262;2024-03-23T21:28:01;20.20;47.20
27823;DHT22;29019;47.630;8.262;2024-03-23T21:32:01;20.20;46.50
27823;DHT22;29019;47.630;8.262;2024-03-23T21:36:03;20.20;46.60
27823;DHT22;29019;47.630;8.262;2024-03-23T21:40:05;20.20;46.60
27823;DHT22;29019;47.630;8.262;2024-03-23T21:44:05;20.30;46.90
27823;DHT22;29019;47.630;8.262;2024-03-23T21:48:08;20.30;46.70
27823;DHT22;29019;47.630;8.262;2024-03-23T21:52:08;20.30;46.80
27823;DHT22;29019;47.630;8.262;2024-03-23T21:56:09;20.30;46.70
27823;DHT22;29019;47.630;8.262;2024-03-23T22:00:10;20.30;46.60
27823;DHT22;29019;47.630;8.262;2024-03-23T22:04:11;20.20;46.70
27823;DHT22;29019;47.630;8.262;2024-03-23T22:08:12;20.20;47.20
27823;DHT22;29019;47.630;8.262;2024-03-23T22:12:12;20.20;47.20
27823;DHT22;29019;47.630;8.262;2024-03-23T22:16:13;20.20;46.90
27823;DHT22;29019;47.630;8.262;2024-03-23T22:20:14;20.30;47.10
27823;DHT22;29019;47.630;8.262;2024-03-23T22:24:15;20.20;47.10
27823;DHT22;29019;47.630;8.262;2024-03-23T22:28:16;20.30;47.20
27823;DHT22;29019;47.630;8.262;2024-03-23T22:32:18;20.20;47.10
27823;DHT22;29019;47.630;8.262;2024-03-23T22:36:19;20.20;47.20
27823;DHT22;29019;47.630;8.262;2024-03-23T22:40:19;20.30;47.20
27823;DHT22;29019;47.630;8.262;2024-03-23T22:44:20;20.30;47.80
27823;DHT22;29019;47.630;8.262;2024-03-23T22:48:24;20.20;48.00
27823;DHT22;29019;47.630;8.262;2024-03-23T22:52:25;20.20;47.50
27823;DHT22;29019;47.630;8.262;2024-03-23T22:56:25;20.20;46.90
27823;DHT22;29019;47.630;8.262;2024-03-23T23:00:26;20.10;46.80
27823;DHT22;29019;47.630;8.262;2024-03-23T23:04:26;20.10;47.40
27823;DHT22;29019;47.630;8.262;2024-03-23T23:08:27;20.20;47.50
27823;DHT22;29019;47.630;8.262;2024-03-23T23:12:27;20.10;47.20
27823;DHT22;29019;47.630;8.262;2024-03-23T23:16:28;20.10;47.10
27823;DHT22;29019;47.630;8.262;2024-03-23T23:20:29;20.10;46.90
27823;DHT22;29019;47.630;8.262;2024-03-23T23:24:30;20.10;47.00
27823;DHT22;29019;47.630;8.262;2024-03-23T23:28:31;20.10;46.90
27823;DHT22;29019;47.630;8.262;2024-03-23T23:32:31;20.10;46.80
27823;DHT22;29019;47.630;8.262;2024-03-23T23:36:32;19.90;45.80
27823;DHT22;29019;47.630;8.262;2024-03-23T23:40:33;19.70;44.60
27823;DHT22;29019;47.630;8.262;2024-03-23T23:44:33;19.80;44.70
27823;DHT22;29019;47.630;8.262;2024-03-23T23:48:34;19.80;44.60
27823;DHT22;29019;47.630;8.262;2024-03-23T23:52:34;19.90;44.60
27823;DHT22;29019;47.630;8.262;2024-03-23T23:56:36;19.90;44.90
